createdAt,value
2023-07-25T00:00:11.941Z,9.90
2023-07-25T00:03:18.231Z,9.08
2023-07-25T00:06:24.202Z,10.45
2023-07-25T00:09:31.948Z,9.20
2023-07-25T00:12:37.705Z,9.00
2023-07-25T00:15:43.217Z,9.68
2023-07-25T00:18:48.952Z,10.03
2023-07-25T00:21:55.967Z,9.20
2023-07-25T00:25:02.302Z,10.75
2023-07-25T00:28:08.101Z,9.88
2023-07-25T00:31:22.880Z,9.78
2023-07-25T00:34:29.147Z,9.88
2023-07-25T00:37:34.907Z,9.60
2023-07-25T00:40:40.012Z,10.32
2023-07-25T00:43:39.163Z,9.78
2023-07-25T00:46:45.809Z,10.15
2023-07-25T00:49:51.887Z,10.13
2023-07-25T00:52:57.963Z,10.13
2023-07-25T00:56:03.941Z,10.75
2023-07-25T00:59:11.112Z,11.43
2023-07-25T01:02:17.682Z,10.78
2023-07-25T01:05:24.757Z,11.15
2023-07-25T01:08:30.939Z,11.57
2023-07-25T01:11:37.665Z,11.60
2023-07-25T01:14:47.073Z,11.83
2023-07-25T01:17:54.788Z,11.75
2023-07-25T01:21:01.833Z,10.50
2023-07-25T01:24:06.901Z,10.63
2023-07-25T01:27:13.200Z,11.15
2023-07-25T01:30:20.295Z,10.68
2023-07-25T01:33:28.684Z,11.55
2023-07-25T01:36:34.368Z,10.53
2023-07-25T01:39:40.218Z,11.25
2023-07-25T01:42:45.837Z,11.03
2023-07-25T01:45:52.631Z,10.28
2023-07-25T01:48:58.848Z,11.38
2023-07-25T01:52:04.065Z,10.78
2023-07-25T01:55:11.907Z,10.15
2023-07-25T01:58:21.320Z,10.10
2023-07-25T02:01:28.419Z,10.03
2023-07-25T02:04:20.348Z,10.45
2023-07-25T02:07:27.025Z,9.48
2023-07-25T02:10:35.701Z,9.28
2023-07-25T02:13:40.961Z,10.38
2023-07-25T02:16:48.685Z,10.23
2023-07-25T02:19:54.312Z,10.08
2023-07-25T02:22:53.301Z,9.93
2023-07-25T02:26:00.048Z,9.15
2023-07-25T02:29:06.410Z,8.55
2023-07-25T02:32:12.687Z,9.33
2023-07-25T02:35:18.430Z,9.55
2023-07-25T02:38:23.560Z,9.33
2023-07-25T02:41:30.519Z,9.05
2023-07-25T02:44:37.345Z,8.08
2023-07-25T02:47:44.012Z,8.73
2023-07-25T02:50:49.319Z,8.28
2023-07-25T02:53:56.003Z,8.55
2023-07-25T02:57:01.603Z,8.15
2023-07-25T03:00:07.612Z,7.83
2023-07-25T03:03:13.269Z,7.95
2023-07-25T03:06:21.455Z,8.28
2023-07-25T03:09:28.389Z,7.55
2023-07-25T03:12:34.235Z,7.70
2023-07-25T03:15:40.868Z,8.30
2023-07-25T03:18:46.102Z,8.05
2023-07-25T03:21:51.642Z,7.17
2023-07-25T03:24:58.078Z,7.80
2023-07-25T03:28:04.360Z,8.50
2023-07-25T03:31:10.488Z,7.78
2023-07-25T03:34:16.777Z,7.65
2023-07-25T03:37:15.535Z,7.85
2023-07-25T03:40:08.018Z,7.92
2023-07-25T03:43:14.973Z,7.85
2023-07-25T03:46:20.713Z,7.90
2023-07-25T03:49:25.914Z,7.55
2023-07-25T03:52:31.002Z,7.37
2023-07-25T03:55:36.919Z,8.10
2023-07-25T03:58:43.149Z,6.55
2023-07-25T04:01:48.898Z,6.92
2023-07-25T04:04:55.582Z,6.90
2023-07-25T04:08:01.456Z,5.45
2023-07-25T04:11:07.067Z,6.28
2023-07-25T04:14:12.533Z,6.12
2023-07-25T04:17:18.133Z,6.92
2023-07-25T04:20:24.745Z,5.97
2023-07-25T04:23:29.541Z,6.35
2023-07-25T04:26:34.444Z,6.70
2023-07-25T04:29:40.329Z,5.72
2023-07-25T04:32:47.072Z,6.03
2023-07-25T04:35:54.957Z,6.05
2023-07-25T04:39:00.562Z,5.92
2023-07-25T04:42:06.656Z,5.40
2023-07-25T04:45:12.410Z,5.47
2023-07-25T04:48:17.404Z,5.72
2023-07-25T04:51:23.499Z,5.58
2023-07-25T04:54:30.119Z,5.47
2023-07-25T04:57:36.342Z,4.95
2023-07-25T05:00:35.288Z,5.47
2023-07-25T05:03:40.651Z,5.90
2023-07-25T05:06:47.436Z,5.53
2023-07-25T05:09:53.934Z,5.00
2023-07-25T05:12:53.341Z,4.55
2023-07-25T05:15:47.975Z,5.70
2023-07-25T05:18:56.325Z,4.80
2023-07-25T05:22:01.449Z,4.53
2023-07-25T05:25:07.818Z,4.62
2023-07-25T05:28:14.043Z,4.72
2023-07-25T05:31:19.641Z,4.20
2023-07-25T05:34:25.831Z,4.20
2023-07-25T05:37:36.683Z,4.28
2023-07-25T05:40:45.535Z,4.30
2023-07-25T05:43:53.089Z,4.17
2023-07-25T05:46:59.763Z,4.03
2023-07-25T05:50:06.284Z,4.60
2023-07-25T05:53:12.377Z,3.80
2023-07-25T05:56:17.999Z,4.58
2023-07-25T05:59:23.342Z,4.62
2023-07-25T06:02:29.601Z,3.77
2023-07-25T06:05:35.965Z,4.25
2023-07-25T06:08:42.388Z,4.25
2023-07-25T06:11:47.743Z,4.20
2023-07-25T06:14:53.785Z,4.58
2023-07-25T06:18:00.133Z,4.05
2023-07-25T06:21:06.232Z,4.17
2023-07-25T06:24:13.976Z,4.22
2023-07-25T06:27:19.182Z,4.50
2023-07-25T06:30:25.442Z,3.47
2023-07-25T06:33:30.743Z,3.62
2023-07-25T06:36:37.149Z,3.98
2023-07-25T06:39:42.381Z,4.22
2023-07-25T06:42:42.932Z,3.50
2023-07-25T06:45:37.596Z,3.60
2023-07-25T06:48:42.658Z,3.67
2023-07-25T06:51:49.024Z,3.77
2023-07-25T06:54:56.038Z,3.35
2023-07-25T06:58:03.184Z,3.65
2023-07-25T07:01:09.835Z,3.77
2023-07-25T07:04:15.882Z,3.50
2023-07-25T07:07:21.046Z,3.87
2023-07-25T07:10:41.150Z,3.65
2023-07-25T07:13:48.769Z,3.17
2023-07-25T07:16:55.305Z,3.83
2023-07-25T07:20:02.782Z,3.72
2023-07-25T07:23:09.290Z,3.80
2023-07-25T07:26:15.817Z,3.52
2023-07-25T07:29:21.768Z,3.77
2023-07-25T07:32:27.072Z,3.62
2023-07-25T07:35:33.665Z,3.77
2023-07-25T07:38:40.196Z,3.98
2023-07-25T07:41:46.383Z,3.83
2023-07-25T07:44:52.235Z,3.83
2023-07-25T07:47:58.412Z,4.12
2023-07-25T07:51:04.024Z,3.92
2023-07-25T07:54:09.308Z,3.75
2023-07-25T07:57:14.588Z,3.70
2023-07-25T08:00:21.909Z,3.83
2023-07-25T08:03:28.554Z,3.72
2023-07-25T08:06:35.891Z,3.70
2023-07-25T08:09:42.661Z,4.05
2023-07-25T08:12:48.950Z,4.12
2023-07-25T08:15:55.897Z,4.00
2023-07-25T08:18:54.223Z,3.25
2023-07-25T08:21:41.402Z,4.50
2023-07-25T08:24:53.964Z,4.50
2023-07-25T08:28:00.176Z,3.98
2023-07-25T08:31:19.981Z,4.20
2023-07-25T08:37:33.381Z,3.70
2023-07-25T08:40:38.085Z,3.87
2023-07-25T08:43:43.509Z,4.30
2023-07-25T08:46:48.463Z,3.95
2023-07-25T08:49:57.223Z,4.08
2023-07-25T08:53:04.696Z,3.73
2023-07-25T08:56:12.508Z,4.20
2023-07-25T08:59:18.780Z,4.70
2023-07-25T09:02:18.285Z,4.12
2023-07-25T09:05:11.384Z,3.87
2023-07-25T09:08:17.822Z,4.12
2023-07-25T09:11:24.274Z,3.77
2023-07-25T09:14:29.971Z,4.40
2023-07-25T09:17:35.085Z,3.87
2023-07-25T09:20:41.226Z,4.17
2023-07-25T09:23:48.910Z,4.37
2023-07-25T09:26:54.487Z,4.28
2023-07-25T09:29:59.870Z,4.40
2023-07-25T09:33:05.445Z,4.47
2023-07-25T09:36:10.869Z,3.80
2023-07-25T09:39:17.674Z,4.05
2023-07-25T09:42:24.148Z,4.00
2023-07-25T09:45:29.862Z,3.87
2023-07-25T09:48:36.343Z,4.00
2023-07-25T09:51:42.520Z,4.17
2023-07-25T09:54:47.794Z,4.00
2023-07-25T09:57:55.321Z,4.10
2023-07-25T10:01:01.093Z,3.40
2023-07-25T10:04:06.235Z,3.85
2023-07-25T10:07:14.472Z,3.22
2023-07-25T10:13:33.570Z,3.30
2023-07-25T10:16:32.743Z,3.50
2023-07-25T10:19:37.769Z,3.33
2023-07-25T10:22:54.790Z,2.77
2023-07-25T10:26:02.282Z,3.20
2023-07-25T10:29:07.624Z,3.50
2023-07-25T10:32:13.510Z,3.30
2023-07-25T10:35:19.769Z,3.08
2023-07-25T10:38:28.321Z,3.12
2023-07-25T10:41:34.721Z,3.12
2023-07-25T10:44:52.113Z,2.90
2023-07-25T10:48:01.256Z,3.60
2023-07-25T10:51:06.600Z,3.05
2023-07-25T10:54:28.280Z,3.05
2023-07-25T10:57:34.901Z,2.90
2023-07-25T11:00:54.477Z,2.65
2023-07-25T11:04:00.269Z,3.60
2023-07-25T11:07:06.820Z,2.85
2023-07-25T11:10:20.100Z,2.52
2023-07-25T11:13:25.589Z,2.85
2023-07-25T11:16:30.705Z,3.02
2023-07-25T11:19:43.678Z,3.12
2023-07-25T11:22:49.448Z,3.33
2023-07-25T11:25:55.483Z,3.05
2023-07-25T11:29:01.409Z,2.83
2023-07-25T11:32:10.639Z,3.22
2023-07-25T11:35:10.660Z,2.98
2023-07-25T11:38:17.402Z,3.47
2023-07-25T11:41:23.699Z,3.58
2023-07-25T11:44:32.892Z,3.25
2023-07-25T11:47:38.678Z,3.98
2023-07-25T11:50:43.859Z,3.17
2023-07-25T11:53:48.386Z,3.40
2023-07-25T11:56:54.273Z,3.22
2023-07-25T11:59:59.845Z,3.42
2023-07-25T12:03:05.981Z,2.98
2023-07-25T12:06:14.177Z,3.08
2023-07-25T12:09:19.586Z,3.27
2023-07-25T12:12:31.389Z,3.45
2023-07-25T12:15:39.196Z,3.50
2023-07-25T12:18:46.258Z,3.30
2023-07-25T12:21:55.028Z,3.72
2023-07-25T12:25:01.620Z,3.35
2023-07-25T12:28:06.799Z,3.33
2023-07-25T12:31:11.991Z,3.52
2023-07-25T12:34:17.377Z,3.72
2023-07-25T12:37:24.124Z,3.92
2023-07-25T12:40:30.191Z,3.92
2023-07-25T12:43:36.750Z,3.85
2023-07-25T12:46:45.781Z,3.55
2023-07-25T12:49:52.278Z,4.03
2023-07-25T12:52:59.670Z,4.47
2023-07-25T12:56:05.428Z,4.60
2023-07-25T12:59:12.099Z,4.22
2023-07-25T13:02:18.032Z,5.00
2023-07-25T13:05:24.015Z,5.95
2023-07-25T13:08:29.465Z,5.37
2023-07-25T13:11:36.302Z,4.80
2023-07-25T13:14:42.079Z,4.85
2023-07-25T13:17:49.751Z,4.87
2023-07-25T13:20:56.024Z,5.90
2023-07-25T13:24:01.010Z,5.35
2023-07-25T13:27:08.792Z,4.47
2023-07-25T13:30:14.820Z,5.65
2023-07-25T13:33:20.481Z,5.20
2023-07-25T13:36:26.923Z,5.70
2023-07-25T13:39:33.764Z,5.78
2023-07-25T13:42:42.248Z,5.70
2023-07-25T13:45:53.274Z,5.80
2023-07-25T13:48:59.671Z,5.20
2023-07-25T13:52:05.978Z,4.92
2023-07-25T13:55:04.732Z,5.12
2023-07-25T14:01:18.670Z,4.72
2023-07-25T14:04:25.473Z,5.95
2023-07-25T14:07:33.315Z,5.75
2023-07-25T14:10:41.778Z,5.47
2023-07-25T14:13:48.006Z,4.90
2023-07-25T14:16:53.949Z,6.05
2023-07-25T14:20:00.343Z,5.80
2023-07-25T14:23:05.815Z,5.33
2023-07-25T14:26:11.510Z,4.97
2023-07-25T14:29:17.932Z,5.42
2023-07-25T14:32:25.797Z,5.28
2023-07-25T14:35:32.524Z,5.15
2023-07-25T14:38:38.748Z,5.75
2023-07-25T14:41:44.796Z,6.28
2023-07-25T14:44:51.278Z,6.40
2023-07-25T14:47:51.421Z,6.08
2023-07-25T14:50:57.580Z,5.90
2023-07-25T14:54:02.778Z,6.25
2023-07-25T14:57:07.536Z,5.70
2023-07-25T15:00:13.244Z,6.70
2023-07-25T15:03:19.678Z,6.12
2023-07-25T15:06:26.153Z,5.75
2023-07-25T15:09:32.117Z,6.28
2023-07-25T15:12:37.978Z,5.67
2023-07-25T15:15:44.176Z,5.58
2023-07-25T15:18:53.801Z,5.87
2023-07-25T15:22:00.519Z,5.95
2023-07-25T15:25:07.042Z,6.40
2023-07-25T15:28:12.240Z,5.22
2023-07-25T15:31:18.052Z,6.62
2023-07-25T15:34:23.395Z,5.35
2023-07-25T15:37:24.181Z,5.37
2023-07-25T15:40:17.893Z,4.75
2023-07-25T15:43:16.619Z,5.53
2023-07-25T15:46:24.917Z,4.65
2023-07-25T15:49:24.384Z,6.28
2023-07-25T15:52:31.266Z,5.80
2023-07-25T15:55:37.003Z,5.00
2023-07-25T15:58:43.580Z,5.70
2023-07-25T16:01:49.632Z,6.35
2023-07-25T16:04:55.963Z,6.12
2023-07-25T16:08:01.182Z,7.58
2023-07-25T16:11:06.565Z,7.67
2023-07-25T16:14:12.300Z,6.80
2023-07-25T16:17:18.041Z,6.92
2023-07-25T16:20:24.528Z,6.17
2023-07-25T16:23:29.941Z,6.17
2023-07-25T16:26:36.031Z,6.15
2023-07-25T16:29:41.345Z,5.75
2023-07-25T16:32:47.938Z,5.70
2023-07-25T16:35:55.524Z,5.22
2023-07-25T16:39:01.759Z,5.35
2023-07-25T16:42:11.088Z,5.92
2023-07-25T16:45:18.434Z,5.05
2023-07-25T16:48:24.883Z,6.28
2023-07-25T16:51:30.732Z,4.80
2023-07-25T16:54:36.361Z,5.67
2023-07-25T16:57:43.640Z,4.60
2023-07-25T17:00:49.477Z,4.80
2023-07-25T17:03:54.634Z,4.67
2023-07-25T17:07:00.232Z,4.60
2023-07-25T17:13:10.958Z,4.67
2023-07-25T17:16:17.600Z,4.90
2023-07-25T17:19:22.889Z,4.12
2023-07-25T17:22:29.933Z,4.72
2023-07-25T17:25:34.576Z,5.08
2023-07-25T17:28:40.331Z,3.98
2023-07-25T17:31:45.576Z,3.80
2023-07-25T17:34:51.914Z,4.03
2023-07-25T17:37:57.763Z,3.50
2023-07-25T17:41:04.562Z,3.95
2023-07-25T17:44:03.380Z,4.28
2023-07-25T17:47:08.827Z,3.75
2023-07-25T17:50:14.406Z,4.58
2023-07-25T17:53:20.146Z,3.98
2023-07-25T17:56:26.133Z,3.80
2023-07-25T17:59:32.238Z,3.98
2023-07-25T18:02:37.832Z,3.72
2023-07-25T18:05:43.198Z,3.90
2023-07-25T18:08:49.134Z,3.90
2023-07-25T18:11:54.744Z,4.22
2023-07-25T18:15:00.642Z,3.75
2023-07-25T18:18:06.565Z,3.70
2023-07-25T18:21:12.526Z,3.37
2023-07-25T18:24:18.932Z,4.12
2023-07-25T18:27:25.721Z,3.67
2023-07-25T18:30:32.141Z,4.08
2023-07-25T18:33:39.074Z,3.90
2023-07-25T18:36:45.026Z,3.58
2023-07-25T18:39:51.976Z,4.25
2023-07-25T18:42:57.652Z,3.95
2023-07-25T18:46:03.492Z,3.72
2023-07-25T18:49:10.063Z,3.85
2023-07-25T18:52:15.549Z,3.92
2023-07-25T18:55:22.946Z,4.05
2023-07-25T18:58:49.202Z,3.60
2023-07-25T19:01:57.874Z,3.77
2023-07-25T19:05:03.193Z,4.12
2023-07-25T19:08:09.882Z,3.90
2023-07-25T19:11:15.643Z,3.95
2023-07-25T19:14:22.342Z,3.58
2023-07-25T19:17:27.527Z,3.52
2023-07-25T19:20:33.874Z,3.83
2023-07-25T19:23:40.755Z,3.90
2023-07-25T19:26:47.313Z,3.95
2023-07-25T19:29:54.180Z,3.80
2023-07-25T19:33:00.866Z,3.65
2023-07-25T19:36:10.535Z,3.72
2023-07-25T19:39:16.514Z,3.90
2023-07-25T19:42:23.258Z,4.00
2023-07-25T19:45:29.095Z,3.75
2023-07-25T19:48:35.449Z,3.67
2023-07-25T19:51:40.903Z,3.65
2023-07-25T19:54:47.592Z,3.98
2023-07-25T19:57:54.170Z,4.03
2023-07-25T20:00:59.512Z,3.90
2023-07-25T20:04:08.140Z,3.87
2023-07-25T20:07:15.867Z,3.62
2023-07-25T20:10:35.551Z,4.08
2023-07-25T20:16:46.314Z,4.15
2023-07-25T20:19:51.986Z,5.03
2023-07-25T20:22:58.913Z,3.90
2023-07-25T20:26:05.315Z,3.67
2023-07-25T20:29:11.394Z,4.40
2023-07-25T20:32:17.931Z,4.80
2023-07-25T20:35:23.013Z,4.12
2023-07-25T20:38:29.060Z,4.08
2023-07-25T20:41:35.017Z,4.55
2023-07-25T20:44:40.309Z,4.37
2023-07-25T20:47:45.065Z,3.85
2023-07-25T20:50:51.351Z,4.45
2023-07-25T20:53:57.286Z,3.70
2023-07-25T20:57:03.541Z,3.70
2023-07-25T21:00:09.828Z,3.98
2023-07-25T21:03:16.518Z,3.72
2023-07-25T21:06:22.029Z,3.62
2023-07-25T21:09:27.971Z,3.70
2023-07-25T21:12:33.714Z,3.65
2023-07-25T21:15:39.520Z,3.65
2023-07-25T21:18:45.226Z,3.72
2023-07-25T21:21:52.102Z,3.72
2023-07-25T21:24:58.606Z,3.67
2023-07-25T21:28:05.262Z,3.90
2023-07-25T21:31:12.945Z,3.60
2023-07-25T21:34:18.498Z,4.08
2023-07-25T21:37:25.170Z,3.40
2023-07-25T21:40:32.033Z,3.62
2023-07-25T21:43:38.539Z,3.55
2023-07-25T21:46:40.005Z,3.47
2023-07-25T21:49:45.088Z,3.10
2023-07-25T21:52:51.875Z,3.50
2023-07-25T21:55:56.567Z,3.35
2023-07-25T21:59:02.224Z,3.40
2023-07-25T22:02:09.688Z,3.60
2023-07-25T22:05:15.474Z,4.15
2023-07-25T22:08:13.969Z,3.80
2023-07-25T22:11:20.472Z,3.20
2023-07-25T22:14:26.124Z,3.50
2023-07-25T22:17:25.055Z,3.65
2023-07-25T22:20:38.330Z,3.25
2023-07-25T22:23:37.446Z,3.20
2023-07-25T22:26:43.992Z,3.52
2023-07-25T22:29:49.394Z,3.75
2023-07-25T22:32:56.023Z,3.95
2023-07-25T22:36:02.708Z,3.52
2023-07-25T22:39:09.570Z,4.00
2023-07-25T22:42:14.798Z,3.92
2023-07-25T22:45:20.528Z,3.37
2023-07-25T22:48:18.884Z,4.08
2023-07-25T22:51:18.903Z,3.80
2023-07-25T22:54:23.534Z,3.22
2023-07-25T22:57:28.793Z,4.12
2023-07-25T23:00:34.482Z,4.25
2023-07-25T23:03:43.273Z,3.77
2023-07-25T23:06:48.940Z,4.20
2023-07-25T23:09:55.715Z,3.50
2023-07-25T23:13:08.808Z,3.90
2023-07-25T23:16:14.673Z,3.60
2023-07-25T23:19:20.847Z,4.05
2023-07-25T23:22:26.365Z,3.75
2023-07-25T23:25:32.175Z,4.00
2023-07-25T23:28:38.805Z,3.75
2023-07-25T23:31:44.793Z,3.72
2023-07-25T23:35:02.392Z,3.62
2023-07-25T23:38:07.644Z,3.77
2023-07-25T23:41:14.553Z,3.67
2023-07-25T23:44:21.782Z,3.90
2023-07-25T23:47:27.439Z,4.35
2023-07-25T23:50:34.251Z,4.28
2023-07-25T23:53:40.887Z,4.22
2023-07-25T23:56:48.620Z,3.90
2023-07-25T23:59:55.233Z,4.95
